Time;durP1;ratioP1;P1;durP2;ratioP2;P2;SDS_P1;SDS_P2;PMS_P1;PMS_P2;Temp;Humidity;BMP_temperature;BMP_pressure;BME280_temperature;BME280_humidity;BME280_pressure;Samples;Min_cycle;Max_cycle;Signal;HPM_P1;HPM_P2
2023/01/24 00:00:41;;;;;;;7.18;4.88;;;;;;;18.37;40.87;103700.50;5050447;28;20036;-69
2023/01/24 00:03:15;;;;;;;7.10;4.90;;;;;;;18.36;40.96;103701.38;5049823;28;20060;-71
2023/01/24 00:05:41;;;;;;;;;;;;;;;18.39;40.75;103693.34;5050854;28;20029;-70
2023/01/24 00:08:08;;;;;;;7.35;4.65;;;;;;;18.36;40.86;103701.38;5050068;28;19924;-69
2023/01/24 00:10:33;;;;;;;8.50;4.80;;;;;;;18.31;40.64;103699.81;5050661;28;20029;-69
2023/01/24 00:12:59;;;;;;;6.50;4.53;;;;;;;18.32;40.83;103695.38;5048604;28;20127;-69
2023/01/24 00:15:24;;;;;;;7.53;4.38;;;;;;;18.31;40.78;103693.69;5050084;28;20033;-68
2023/01/24 00:17:50;;;;;;;6.70;4.78;;;;;;;18.30;40.73;103695.44;5056980;28;20033;-70
2023/01/24 00:20:15;;;;;;;7.28;4.63;;;;;;;18.27;40.67;103700.81;5048464;28;20083;-69
2023/01/24 00:22:41;;;;;;;6.05;4.40;;;;;;;18.28;40.46;103694.63;5049733;28;20037;-68
2023/01/24 00:25:06;;;;;;;5.70;4.47;;;;;;;18.26;40.60;103687.69;5050134;28;20033;-69
2023/01/24 00:27:34;;;;;;;7.28;4.78;;;;;;;18.25;40.45;103694.75;5050203;28;20032;-68
2023/01/24 00:29:59;;;;;;;6.65;4.40;;;;;;;18.24;40.14;103693.00;5053820;28;20036;-70
2023/01/24 00:32:25;;;;;;;6.93;4.32;;;;;;;18.24;40.32;103687.72;5053412;28;20025;-70
2023/01/24 00:34:50;;;;;;;7.22;4.60;;;;;;;18.23;40.01;103682.50;5053178;28;20036;-71
2023/01/24 00:37:15;;;;;;;7.40;4.38;;;;;;;18.22;40.20;103684.28;5053711;28;20037;-70
2023/01/24 00:39:40;;;;;;;6.73;4.47;;;;;;;18.18;39.83;103673.91;5053678;28;20039;-70
2023/01/24 00:42:06;;;;;;;6.63;4.85;;;;;;;18.18;39.80;103677.41;5053775;28;20630;-70
2023/01/24 00:44:31;;;;;;;7.57;4.25;;;;;;;18.20;39.89;103682.63;5053231;28;20105;-70
2023/01/24 00:46:56;;;;;;;6.82;4.57;;;;;;;18.18;40.02;103668.63;5053532;28;20036;-69
2023/01/24 00:49:22;;;;;;;6.82;4.45;;;;;;;18.16;39.88;103662.56;5053333;28;20029;-68
2023/01/24 00:51:47;;;;;;;6.72;4.25;;;;;;;18.13;39.72;103661.75;5052782;28;20497;-69
2023/01/24 00:54:12;;;;;;;6.65;4.60;;;;;;;18.16;39.45;103667.84;5053635;28;20044;-69
2023/01/24 00:56:37;;;;;;;6.45;4.38;;;;;;;18.12;39.26;103667.09;5053938;28;20473;-69
2023/01/24 00:59:03;;;;;;;6.07;4.27;;;;;;;18.15;39.37;103671.38;5052897;28;20024;-67
2023/01/24 01:01:28;;;;;;;6.20;4.40;;;;;;;18.10;39.54;103661.00;5053300;28;20746;-69
2023/01/24 01:03:55;;;;;;;5.68;4.10;;;;;;;18.11;39.42;103668.84;5052982;28;20854;-69
2023/01/24 01:06:21;;;;;;;6.40;4.47;;;;;;;18.10;39.43;103664.50;5052965;28;20090;-69
2023/01/24 01:08:46;;;;;;;6.00;4.43;;;;;;;18.08;39.22;103666.31;5053209;28;20040;-70
2023/01/24 01:11:11;;;;;;;6.63;4.57;;;;;;;18.06;39.44;103662.03;5053614;28;20036;-68
2023/01/24 01:13:37;;;;;;;6.50;4.15;;;;;;;18.07;39.45;103661.97;5053033;28;20073;-69
2023/01/24 01:16:16;;;;;;;5.43;4.15;;;;;;;18.08;39.15;103668.09;5059273;28;20040;-69
2023/01/24 01:18:41;;;;;;;5.50;4.20;;;;;;;18.07;39.20;103661.09;5052524;28;20037;-69
2023/01/24 01:21:07;;;;;;;6.38;4.28;;;;;;;18.05;38.78;103662.94;5052418;28;20119;-69
2023/01/24 01:23:33;;;;;;;5.93;4.10;;;;;;;18.03;38.67;103660.34;5053384;28;20430;-69
2023/01/24 01:26:02;;;;;;;5.90;4.50;;;;;;;18.03;38.63;103656.88;5052953;28;20041;-69
2023/01/24 01:28:29;;;;;;;6.38;4.28;;;;;;;18.03;38.71;103657.72;5051243;28;20388;-69
2023/01/24 01:30:55;;;;;;;6.03;4.28;;;;;;;17.98;38.72;103659.66;5052713;28;20126;-69
2023/01/24 01:33:21;;;;;;;5.72;3.75;;;;;;;18.00;38.60;103668.38;5053034;28;20028;-69
2023/01/24 01:35:49;;;;;;;5.72;4.10;;;;;;;17.98;38.74;103669.38;5052656;28;20032;-68
2023/01/24 01:38:16;;;;;;;6.07;4.25;;;;;;;17.99;38.57;103674.59;5052390;28;20086;-68
2023/01/24 01:40:42;;;;;;;6.05;4.40;;;;;;;17.97;38.35;103667.66;5051883;28;20079;-69
2023/01/24 01:43:14;;;;;;;6.85;4.30;;;;;;;17.97;38.28;103670.28;5052162;28;20040;-69
2023/01/24 01:45:53;;;;;;;6.03;4.07;;;;;;;17.96;38.26;103669.44;5052064;28;20108;-69
2023/01/24 01:48:39;;;;;;;5.50;3.90;;;;;;;17.95;38.56;103668.53;5052935;28;20036;-68
2023/01/24 01:51:19;;;;;;;5.38;3.83;;;;;;;17.91;38.50;103661.69;5051928;28;20037;-69
2023/01/24 01:53:49;;;;;;;5.75;4.05;;;;;;;17.92;38.72;103658.09;5052296;28;20041;-68
2023/01/24 01:56:31;;;;;;;5.07;4.03;;;;;;;17.92;38.75;103666.00;5052533;28;20037;-70
2023/01/24 01:59:01;;;;;;;6.13;4.22;;;;;;;17.89;38.31;103658.22;5052788;28;20052;-68
2023/01/24 02:01:27;;;;;;;6.05;4.35;;;;;;;17.90;38.21;103654.66;5052622;28;20040;-69
2023/01/24 02:04:10;;;;;;;5.57;4.20;;;;;;;17.92;37.98;103654.63;5052157;28;20041;-70
2023/01/24 02:06:59;;;;;;;5.30;3.70;;;;;;;17.92;38.19;103666.00;5052053;28;20047;-69
2023/01/24 02:09:29;;;;;;;5.28;3.72;;;;;;;17.84;38.19;103643.44;5051990;28;20033;-69
2023/01/24 02:11:59;;;;;;;5.47;4.07;;;;;;;17.85;38.08;103656.59;5052250;28;20041;-70
2023/01/24 02:17:11;;;;;;;5.40;3.90;;;;;;;17.86;38.09;103657.44;5051994;28;20043;-69
2023/01/24 02:19:39;;;;;;;4.97;3.50;;;;;;;17.87;37.84;103657.38;5051666;28;20036;-69
2023/01/24 02:22:13;;;;;;;5.60;3.78;;;;;;;17.83;38.01;103650.50;5052025;28;20043;-69
2023/01/24 02:24:48;;;;;;;6.18;3.90;;;;;;;17.83;38.16;103655.78;5058577;28;20033;-69
2023/01/24 02:27:13;;;;;;;5.22;4.13;;;;;;;17.84;37.87;103654.84;5051519;28;20036;-68
2023/01/24 02:29:39;;;;;;;5.53;4.10;;;;;;;17.85;37.81;103653.94;5057849;28;20070;-69
2023/01/24 02:32:07;;;;;;;6.47;4.20;;;;;;;17.81;37.65;103652.31;5051484;28;20029;-69
2023/01/24 02:34:32;;;;;;;6.20;4.32;;;;;;;17.82;37.63;103654.06;5051459;28;20033;-69
2023/01/24 02:37:01;;;;;;;5.65;4.10;;;;;;;17.79;37.78;103646.25;5051932;28;20036;-69
2023/01/24 02:39:34;;;;;;;6.38;4.55;;;;;;;17.81;37.45;103656.75;5051336;28;20048;-70
2023/01/24 02:42:05;;;;;;;6.25;4.18;;;;;;;17.77;37.69;103643.66;5051542;28;20497;-69
2023/01/24 02:44:38;;;;;;;5.70;4.20;;;;;;;17.77;37.56;103648.94;5051054;28;20044;-69
2023/01/24 02:47:04;;;;;;;5.73;3.60;;;;;;;17.76;37.88;103643.72;5051596;28;20133;-69
2023/01/24 02:49:29;;;;;;;5.28;3.97;;;;;;;17.75;37.31;103648.13;5051024;28;20505;-68
2023/01/24 02:54:39;;;;;;;5.53;3.97;;;;;;;17.77;37.53;103650.72;5051020;28;20663;-69
2023/01/24 02:59:48;;;;;;;6.55;4.00;;;;;;;17.76;37.41;103657.75;5050492;28;20129;-70
2023/01/24 03:02:13;;;;;;;7.00;4.40;;;;;;;17.75;37.52;103661.34;5051361;28;20056;-69
2023/01/24 03:04:38;;;;;;;6.50;4.50;;;;;;;17.74;37.13;103650.84;5051002;28;20113;-69
2023/01/24 03:07:04;;;;;;;6.10;4.20;;;;;;;17.70;37.12;103650.06;5051035;28;20400;-70
2023/01/24 03:09:35;;;;;;;5.18;3.80;;;;;;;17.71;37.47;103648.31;5050107;28;20110;-70
2023/01/24 03:36:39;;;;;;;5.43;4.10;;;;;;;17.66;37.52;103643.19;5050259;28;20152;-69
2023/01/24 03:41:49;;;;;;;5.55;3.83;;;;;;;17.67;37.38;103634.34;5050705;28;20048;-69
2023/01/24 03:44:14;;;;;;;5.85;4.25;;;;;;;17.65;37.47;103644.09;5050566;28;20064;-69
2023/01/24 03:46:40;;;;;;;5.68;3.75;;;;;;;17.64;37.30;103631.84;5050655;28;20528;-70
2023/01/24 03:49:06;;;;;;;7.53;4.32;;;;;;;17.61;37.31;103637.22;5050554;28;20032;-69
2023/01/24 03:54:15;;;;;;;5.80;4.07;;;;;;;17.64;36.86;103639.75;5050082;28;20043;-69
2023/01/24 03:56:41;;;;;;;5.53;3.83;;;;;;;17.63;37.22;103637.16;5050950;28;20044;-68
2023/01/24 03:59:06;;;;;;;5.68;4.32;;;;;;;17.63;37.14;103648.56;5050162;28;20436;-69
2023/01/24 04:01:31;;;;;;;5.45;4.10;;;;;;;17.61;36.90;103645.13;5050662;28;20464;-71
2023/01/24 04:03:57;;;;;;;5.80;4.30;;;;;;;17.56;37.06;103629.47;5052630;28;20183;-71
2023/01/24 04:06:22;;;;;;;5.97;4.37;;;;;;;17.59;37.30;103636.38;5054955;28;20036;-70
2023/01/24 04:08:49;;;;;;;5.55;3.90;;;;;;;17.58;36.58;103637.31;5055140;28;20289;-69
2023/01/24 04:11:14;;;;;;;6.05;4.70;;;;;;;17.58;36.96;103640.81;5054642;28;20477;-70
2023/01/24 04:13:39;;;;;;;6.45;4.25;;;;;;;17.57;36.96;103641.72;5054482;28;20043;-69
2023/01/24 04:16:06;;;;;;;5.75;4.03;;;;;;;17.61;36.77;103649.53;5054074;28;20110;-69
2023/01/24 04:18:32;;;;;;;6.10;4.20;;;;;;;17.56;36.91;103639.13;5054589;28;20087;-69
2023/01/24 04:21:01;;;;;;;6.18;4.35;;;;;;;17.58;36.67;103645.22;5054190;28;20057;-69
2023/01/24 04:23:26;;;;;;;6.10;3.78;;;;;;;17.57;36.78;103640.88;5054280;28;20122;-69
2023/01/24 04:25:54;;;;;;;6.35;4.47;;;;;;;17.56;36.68;103641.75;5061141;28;20056;-69
2023/01/24 04:28:21;;;;;;;5.93;3.85;;;;;;;17.57;36.44;103648.78;5053737;28;20035;-69
2023/01/24 04:30:46;;;;;;;5.30;3.95;;;;;;;17.57;36.67;103643.50;5053739;28;20056;-69
2023/01/24 04:33:11;;;;;;;6.30;3.83;;;;;;;17.57;37.71;103644.34;5054031;28;20397;-69
2023/01/24 04:35:36;;;;;;;7.50;4.57;;;;;;;17.52;39.09;103638.38;5054424;28;20111;-68
2023/01/24 04:38:03;;;;;;;7.83;4.70;;;;;;;17.58;39.11;103647.88;5053545;28;20270;-68
2023/01/24 04:40:28;;;;;;;5.80;4.18;;;;;;;17.56;39.82;103647.03;5053222;28;20281;-69
2023/01/24 04:42:55;;;;;;;7.32;4.30;;;;;;;17.57;39.89;103652.25;5054192;28;20043;-70
2023/01/24 04:45:21;;;;;;;5.55;4.30;;;;;;;17.53;40.06;103653.31;5053114;28;20048;-69
2023/01/24 04:47:46;;;;;;;7.50;4.50;;;;;;;17.56;40.60;103647.03;5053596;28;20055;-68
2023/01/24 04:50:11;;;;;;;7.97;4.30;;;;;;;17.57;40.90;103654.91;5053229;28;20048;-69
2023/01/24 04:52:37;;;;;;;7.43;4.40;;;;;;;17.53;40.80;103645.38;5060845;28;20117;-69
2023/01/24 04:55:02;;;;;;;8.48;4.90;;;;;;;17.51;40.94;103639.28;5053612;28;20904;-69
2023/01/24 04:57:27;;;;;;;7.07;4.38;;;;;;;17.56;40.86;103654.94;5060622;28;20037;-69
2023/01/24 04:59:53;;;;;;;6.57;4.55;;;;;;;17.53;40.80;103648.03;5053530;28;20127;-71
2023/01/24 05:02:18;;;;;;;7.45;4.25;;;;;;;17.56;41.35;103653.19;5053570;28;20040;-69
2023/01/24 05:04:44;;;;;;;6.45;4.18;;;;;;;17.56;41.40;103655.84;5052747;28;20032;-70
2023/01/24 05:07:09;;;;;;;6.57;3.92;;;;;;;17.53;41.93;103647.16;5053648;28;20486;-70
2023/01/24 05:09:35;;;;;;;8.63;4.57;;;;;;;17.56;41.71;103654.94;5052697;28;20071;-69
2023/01/24 05:12:00;;;;;;;7.25;4.50;;;;;;;17.56;41.87;103654.94;5053343;28;20092;-70
2023/01/24 05:14:25;;;;;;;8.32;4.18;;;;;;;17.53;41.68;103652.41;5053224;28;20041;-69
2023/01/24 05:16:50;;;;;;;8.10;4.45;;;;;;;17.55;41.85;103661.16;5053600;28;20032;-70
2023/01/24 05:19:16;;;;;;;8.88;4.38;;;;;;;17.51;41.87;103651.63;5052895;28;20437;-70
2023/01/24 05:21:41;;;;;;;7.70;4.38;;;;;;;17.51;41.67;103652.47;5053448;28;20540;-70
2023/01/24 05:24:06;;;;;;;8.68;4.70;;;;;;;17.54;41.15;103656.78;5053007;28;20028;-70
2023/01/24 05:26:32;;;;;;;7.43;4.10;;;;;;;17.55;41.68;103663.78;5053355;28;20029;-70
2023/01/24 05:28:57;;;;;;;7.30;4.38;;;;;;;17.53;41.54;103655.94;5053194;28;20124;-70
2023/01/24 05:31:22;;;;;;;6.00;3.47;;;;;;;17.58;40.68;103661.06;5052750;28;20032;-71
2023/01/24 05:33:48;;;;;;;6.68;3.53;;;;;;;17.57;40.41;103659.31;5053569;28;20036;-70
2023/01/24 05:36:19;;;;;;;6.47;3.40;;;;;;;17.56;40.25;103653.19;5053329;28;20090;-71
2023/01/24 05:38:45;;;;;;;6.93;3.35;;;;;;;17.70;39.95;103668.53;5053189;28;20043;-71
2023/01/24 05:41:12;;;;;;;5.95;3.30;;;;;;;17.76;40.03;103670.09;5052488;28;20036;-70
2023/01/24 05:43:38;;;;;;;7.20;3.30;;;;;;;17.80;39.99;103665.56;5052392;28;20045;-70
2023/01/24 05:46:10;;;;;;;7.18;3.33;;;;;;;17.84;40.12;103662.75;5052642;28;20039;-71
2023/01/24 05:48:35;;;;;;;5.82;3.40;;;;;;;17.92;39.91;103675.72;5052526;28;20031;-69
2023/01/24 05:51:03;;;;;;;5.57;2.97;;;;;;;17.92;39.88;103671.28;5052139;28;20036;-70
2023/01/24 05:53:30;;;;;;;6.32;3.33;;;;;;;17.98;39.98;103677.28;5052565;28;20427;-70
2023/01/24 05:56:00;;;;;;;5.53;3.22;;;;;;;18.00;39.99;103672.81;5052415;28;20505;-70
2023/01/24 05:58:27;;;;;;;5.18;2.83;;;;;;;18.06;39.62;103691.91;5051824;28;20043;-68
2023/01/24 06:00:53;;;;;;;7.90;3.42;;;;;;;18.07;39.77;103685.72;5052231;28;20036;-69
2023/01/24 06:03:18;;;;;;;5.90;2.80;;;;;;;18.05;40.05;103678.78;5051763;28;20055;-69
2023/01/24 06:05:49;;;;;;;5.80;2.92;;;;;;;18.11;39.99;103689.13;5052467;28;20029;-71
2023/01/24 06:08:15;;;;;;;7.40;3.30;;;;;;;18.13;39.66;103689.91;5052007;28;20025;-71
2023/01/24 06:10:40;;;;;;;7.70;3.10;;;;;;;18.16;39.92;103688.94;5052096;28;21078;-70
2023/01/24 06:13:06;;;;;;;7.05;3.33;;;;;;;18.17;40.21;103698.59;5052561;28;20075;-70
2023/01/24 06:15:31;;;;;;;6.80;3.22;;;;;;;18.17;39.98;103698.59;5051744;28;20143;-71
2023/01/24 06:17:56;;;;;;;6.78;3.17;;;;;;;18.17;39.89;103691.53;5051987;28;20440;-71
2023/01/24 06:20:22;;;;;;;4.97;3.00;;;;;;;18.18;40.04;103695.03;5052222;28;20037;-70
2023/01/24 06:22:52;;;;;;;5.93;2.88;;;;;;;18.17;40.15;103699.44;5051980;28;20435;-70
2023/01/24 06:25:23;;;;;;;5.25;2.85;;;;;;;18.18;40.12;103693.22;5051695;28;20036;-69
2023/01/24 06:27:49;;;;;;;6.05;2.80;;;;;;;18.23;40.27;103698.34;5051361;28;20033;-69
2023/01/24 06:30:16;;;;;;;6.97;3.20;;;;;;;18.23;40.08;103706.28;5051693;28;20041;-71
2023/01/24 06:33:27;;;;;;;5.43;2.70;;;;;;;18.20;40.38;103701.97;5051168;28;20930;-70
2023/01/24 06:36:04;;;;;;;7.85;3.50;;;;;;;18.25;40.01;103709.72;5044108;28;20125;-70
2023/01/24 06:38:29;;;;;;;5.00;2.88;;;;;;;18.25;40.06;103715.00;5051692;28;20102;-71
2023/01/24 06:40:57;;;;;;;5.85;3.05;;;;;;;18.21;40.08;103716.03;5051544;28;20487;-72
2023/01/24 06:43:22;;;;;;;5.53;2.80;;;;;;;18.20;40.17;103709.91;5050791;28;20722;-71
2023/01/24 06:45:48;;;;;;;5.47;2.92;;;;;;;18.21;40.17;103714.25;5051003;28;20036;-70
2023/01/24 06:48:14;;;;;;;5.65;2.97;;;;;;;18.21;40.21;103716.88;5051048;28;20128;-71
2023/01/24 06:50:39;;;;;;;5.95;2.67;;;;;;;18.23;40.23;103714.19;5050709;28;20033;-69
2023/01/24 06:53:05;;;;;;;7.40;3.13;;;;;;;18.20;40.28;103717.81;5051410;28;20041;-71
2023/01/24 06:55:30;;;;;;;4.85;3.17;;;;;;;18.22;40.50;103720.41;5051117;28;20041;-69
2023/01/24 06:57:58;;;;;;;6.40;2.90;;;;;;;18.21;40.51;103716.03;5051109;28;20396;-72
2023/01/24 07:00:23;;;;;;;4.90;2.50;;;;;;;18.27;40.43;103718.44;5051475;28;20169;-72
2023/01/24 07:03:06;;;;;;;5.28;2.60;;;;;;;18.24;40.50;103711.50;5051088;28;20040;-69
2023/01/24 07:05:32;;;;;;;6.25;2.40;;;;;;;18.29;40.44;103717.50;5051352;28;20373;-67
2023/01/24 07:07:58;;;;;;;6.95;2.92;;;;;;;18.33;40.43;103718.22;5050579;28;20094;-69
2023/01/24 07:10:24;;;;;;;5.18;3.00;;;;;;;18.34;40.33;103722.59;5050898;28;20040;-74
2023/01/24 07:12:49;;;;;;;7.65;3.15;;;;;;;18.38;40.34;103720.69;5050680;28;20532;-70
2023/01/24 07:15:14;;;;;;;7.28;3.00;;;;;;;18.36;40.67;103715.47;5051169;28;20036;-70
2023/01/24 07:17:40;;;;;;;6.30;2.97;;;;;;;18.36;40.39;103726.03;5051099;28;20033;-67
2023/01/24 07:20:06;;;;;;;5.25;2.80;;;;;;;18.36;40.58;103731.31;5051503;28;20048;-71
2023/01/24 07:22:32;;;;;;;5.45;2.78;;;;;;;18.37;40.70;103735.66;5050901;28;20102;-71
2023/01/24 07:24:58;;;;;;;6.47;3.10;;;;;;;18.36;40.87;103744.53;5050633;28;20832;-71
2023/01/24 07:27:23;;;;;;;6.78;2.90;;;;;;;18.35;41.00;103748.06;5050266;28;20129;-71
2023/01/24 07:29:49;;;;;;;5.90;3.30;;;;;;;18.36;40.94;103752.44;5058045;28;20031;-71
2023/01/24 07:32:14;;;;;;;7.45;2.88;;;;;;;18.36;40.79;103756.84;5051373;28;20041;-73
2023/01/24 07:34:39;;;;;;;6.97;3.15;;;;;;;18.36;41.08;103762.13;5051634;28;20029;-73
2023/01/24 07:37:07;;;;;;;6.15;3.10;;;;;;;18.31;41.02;103754.41;5051035;28;20365;-71
2023/01/24 07:39:33;;;;;;;6.32;3.13;;;;;;;18.32;41.21;103756.09;5054751;28;20029;-72
2023/01/24 07:41:58;;;;;;;5.55;3.00;;;;;;;18.36;41.38;103763.00;5070990;28;20037;-72
2023/01/24 07:44:24;;;;;;;5.45;3.05;;;;;;;18.36;41.25;103765.66;5053654;28;20045;-71
2023/01/24 07:46:49;;;;;;;10.40;3.83;;;;;;;18.38;41.14;103771.72;5055729;28;20029;-74
2023/01/24 07:49:15;;;;;;;5.43;3.05;;;;;;;18.35;41.38;103756.00;5056065;28;20705;-73
2023/01/24 07:51:40;;;;;;;6.80;3.10;;;;;;;18.39;41.34;103762.91;5054530;28;20033;-75
2023/01/24 07:54:06;;;;;;;6.35;3.00;;;;;;;18.38;41.60;103762.94;5055049;28;20024;-71
2023/01/24 07:56:31;;;;;;;5.57;2.90;;;;;;;18.42;41.54;103767.19;5055282;28;20037;-70
2023/01/24 07:58:57;;;;;;;7.40;3.20;;;;;;;18.42;41.69;103776.00;5055828;28;20116;-73
2023/01/24 08:01:23;;;;;;;6.82;3.05;;;;;;;18.46;41.72;103772.31;5055601;28;20037;-75
2023/01/24 08:03:49;;;;;;;6.38;3.17;;;;;;;18.46;41.88;103782.88;5054413;28;20033;-72
2023/01/24 08:06:15;;;;;;;6.45;2.97;;;;;;;18.46;42.11;103782.00;5055732;28;20094;-72
2023/01/24 08:08:40;;;;;;;7.25;2.92;;;;;;;18.46;42.21;103774.94;5056651;28;20032;-71
2023/01/24 08:11:06;;;;;;;6.80;2.90;;;;;;;18.47;42.12;103781.09;5055309;28;20119;-73
2023/01/24 08:13:31;;;;;;;6.55;3.10;;;;;;;18.44;42.08;103782.06;5056493;28;20059;-72
2023/01/24 08:15:59;;;;;;;7.75;3.05;;;;;;;18.45;41.96;103782.91;5055936;28;20059;-70
2023/01/24 08:18:24;;;;;;;8.90;2.90;;;;;;;18.47;42.03;103783.75;5054425;28;20068;-72
2023/01/24 08:20:54;;;;;;;6.07;3.00;;;;;;;18.45;42.03;103783.81;5055509;28;20553;-73
2023/01/24 08:23:19;;;;;;;6.85;3.08;;;;;;;18.43;42.11;103772.41;5054617;28;20064;-73
2023/01/24 08:25:45;;;;;;;6.30;3.35;;;;;;;18.44;42.19;103775.94;5053922;28;20435;-72
2023/01/24 08:28:10;;;;;;;8.27;3.30;;;;;;;18.43;42.08;103779.47;5055136;28;20039;-72
2023/01/24 08:30:35;;;;;;;6.40;3.10;;;;;;;18.47;42.15;103792.50;5054950;28;20119;-71
2023/01/24 08:33:05;;;;;;;5.13;2.80;;;;;;;18.41;42.14;103776.03;5054244;28;20110;-71
2023/01/24 08:35:31;;;;;;;5.15;3.20;;;;;;;18.44;41.97;103784.69;5054745;28;20436;-70
2023/01/24 08:37:57;;;;;;;5.97;3.30;;;;;;;18.40;42.18;103783.06;5061867;28;20033;-72
2023/01/24 08:40:23;;;;;;;6.78;3.15;;;;;;;18.42;42.08;103797.13;5053345;28;20102;-71
2023/01/24 08:42:48;;;;;;;8.30;3.03;;;;;;;18.40;42.07;103793.63;5054202;28;20072;-71
2023/01/24 08:45:13;;;;;;;6.75;3.00;;;;;;;18.38;42.25;103790.19;5054235;28;20060;-71
2023/01/24 08:47:39;;;;;;;6.80;3.10;;;;;;;18.43;42.30;103803.25;5054812;28;20052;-74
2023/01/24 08:50:04;;;;;;;8.10;3.00;;;;;;;18.45;42.44;103802.28;5053696;28;20037;-72
2023/01/24 08:52:30;;;;;;;5.82;2.60;;;;;;;18.48;42.36;103799.53;5060529;28;20037;-75
2023/01/24 08:54:55;;;;;;;7.90;3.33;;;;;;;18.50;42.64;103804.75;5053389;28;20100;-76
2023/01/24 08:57:20;;;;;;;5.70;3.03;;;;;;;18.52;43.24;103807.31;5054141;28;20033;-75
2023/01/24 08:59:46;;;;;;;7.80;3.22;;;;;;;18.52;43.63;103810.84;5051540;28;20033;-74
2023/01/24 09:02:13;;;;;;;8.13;3.38;;;;;;;18.52;43.62;103813.47;5061006;28;20538;-75
2023/01/24 09:04:39;;;;;;;7.32;3.53;;;;;;;18.55;43.34;103812.50;5053068;28;20047;-77
2023/01/24 09:07:04;;;;;;;12.13;4.75;;;;;;;18.56;43.62;103814.22;5053069;28;20040;-73
2023/01/24 09:09:29;;;;;;;8.85;3.63;;;;;;;18.53;43.40;103812.53;5052209;28;20043;-74
2023/01/24 09:11:55;;;;;;;8.38;3.50;;;;;;;18.55;43.43;103812.50;5052784;28;20043;-71
2023/01/24 09:14:20;;;;;;;8.88;3.40;;;;;;;18.57;43.66;103813.31;5052086;28;20040;-78
2023/01/24 09:16:45;;;;;;;6.30;3.22;;;;;;;18.55;42.57;103818.66;5051686;28;20055;-71
2023/01/24 09:19:12;;;;;;;6.32;3.40;;;;;;;18.55;42.68;103816.00;5051743;28;20432;-72
2023/01/24 09:21:37;;;;;;;6.38;2.90;;;;;;;18.53;42.68;103809.91;5053457;28;20064;-70
2023/01/24 09:24:03;;;;;;;6.82;3.53;;;;;;;18.51;42.96;103806.47;5053465;28;20113;-70
2023/01/24 09:26:28;;;;;;;8.77;3.70;;;;;;;18.49;42.81;103809.16;5052144;28;20040;-71
2023/01/24 09:28:55;;;;;;;7.07;3.45;;;;;;;18.51;42.71;103813.53;5053360;28;20029;-72
2023/01/24 09:31:20;;;;;;;7.15;3.35;;;;;;;18.52;42.74;103818.75;5068644;28;20029;-72
2023/01/24 09:33:45;;;;;;;9.20;4.13;;;;;;;18.49;42.84;103813.59;5053814;28;20432;-72
2023/01/24 09:36:11;;;;;;;7.27;3.03;;;;;;;18.50;42.40;103817.97;5053164;28;20429;-71
2023/01/24 09:38:36;;;;;;;6.80;3.10;;;;;;;18.55;42.31;103825.69;5053879;28;20288;-71
2023/01/24 09:41:40;;;;;;;6.28;3.20;;;;;;;18.55;42.58;103829.22;5053113;28;20044;-71
2023/01/24 09:44:47;;;;;;;8.43;3.53;;;;;;;18.57;42.42;103827.38;5059341;28;20490;-73
2023/01/24 09:47:40;;;;;;;7.57;3.17;;;;;;;18.58;42.28;103823.81;5053839;28;20045;-73
2023/01/24 09:50:13;;;;;;;6.72;3.15;;;;;;;18.55;42.11;103823.94;5052226;28;20400;-71
2023/01/24 09:52:48;;;;;;;7.22;3.05;;;;;;;18.56;42.47;103819.50;5051811;28;20406;-70
2023/01/24 09:55:25;;;;;;;6.90;3.58;;;;;;;18.53;42.29;103820.47;5052611;28;20507;-73
2023/01/24 09:58:04;;;;;;;6.30;3.33;;;;;;;18.56;42.30;103828.28;5052300;28;20033;-72
2023/01/24 10:00:31;;;;;;;5.03;2.72;;;;;;;18.58;42.34;103839.69;5067655;28;20374;-70
2023/01/24 10:02:58;;;;;;;8.00;3.08;;;;;;;18.56;42.46;103833.56;5053177;28;20043;-73
2023/01/24 10:05:31;;;;;;;7.70;2.95;;;;;;;18.55;42.26;103834.50;5053815;28;20380;-72
2023/01/24 10:08:18;;;;;;;6.53;2.72;;;;;;;18.56;42.29;103843.28;5053132;28;20084;-71
2023/01/24 10:11:06;;;;;;;7.07;2.92;;;;;;;18.56;42.32;103840.63;5052036;28;20146;-70
2023/01/24 10:13:57;;;;;;;7.35;3.22;;;;;;;18.55;42.45;103834.50;5053765;28;20033;-71
2023/01/24 10:16:31;;;;;;;7.72;3.20;;;;;;;18.52;42.35;103825.81;5052466;28;20024;-72
2023/01/24 10:18:56;;;;;;;;;;;;;;;18.59;42.35;103833.47;5052568;28;20566;-72
2023/01/24 10:21:49;;;;;;;5.83;3.13;;;;;;;18.57;42.41;103835.31;5067641;28;19913;-71
2023/01/24 10:24:21;;;;;;;7.55;3.22;;;;;;;18.53;42.62;103832.81;5052834;28;20040;-72
2023/01/24 10:26:49;;;;;;;5.93;3.03;;;;;;;18.53;42.29;103836.31;5052302;28;20440;-72
2023/01/24 10:29:27;;;;;;;6.20;3.08;;;;;;;18.55;42.46;103838.91;5053118;28;20127;-71
2023/01/24 10:32:01;;;;;;;5.05;2.80;;;;;;;18.53;42.30;103843.38;5053998;28;20472;-71
2023/01/24 10:34:55;;;;;;;6.00;2.90;;;;;;;18.57;42.19;103845.88;5053427;28;20036;-71
2023/01/24 10:37:23;;;;;;;7.57;3.08;;;;;;;18.56;42.19;103835.34;5053294;28;20386;-72
2023/01/24 10:39:49;;;;;;;9.88;3.58;;;;;;;18.58;42.45;103836.16;5053641;28;20039;-71
2023/01/24 10:42:23;;;;;;;7.50;3.22;;;;;;;18.53;41.97;103830.19;5052965;28;20024;-72
2023/01/24 10:44:49;;;;;;;8.80;3.33;;;;;;;18.56;41.92;103832.72;5053983;28;20542;-70
2023/01/24 10:47:26;;;;;;;6.43;2.97;;;;;;;18.55;41.92;103839.78;5051610;28;20480;-73
2023/01/24 10:49:58;;;;;;;7.55;2.97;;;;;;;18.55;41.86;103830.97;5052628;28;20046;-71
2023/01/24 10:52:49;;;;;;;6.95;2.85;;;;;;;18.62;41.63;103828.06;5029524;28;20493;-70
2023/01/24 10:55:26;;;;;;;6.60;2.95;;;;;;;18.70;41.65;103825.16;5030412;28;20406;-69
2023/01/24 10:57:52;;;;;;;6.60;2.97;;;;;;;18.73;41.51;103826.81;5029428;28;20041;-72
2023/01/24 11:00:22;;;;;;;8.88;2.72;;;;;;;18.74;41.23;103833.81;5027797;28;20041;-77
2023/01/24 11:02:57;;;;;;;5.72;2.70;;;;;;;18.67;41.09;103823.50;5027164;28;20041;-75
2023/01/24 11:05:22;;;;;;;;;;;;;;;18.76;41.04;103832.84;5028783;28;20041;-72
2023/01/24 11:07:59;;;;;;;5.30;2.80;;;;;;;18.68;41.21;103827.84;5028653;28;19921;-74
2023/01/24 11:10:30;;;;;;;6.60;3.45;;;;;;;18.68;41.27;103824.34;5026968;28;20030;-71
2023/01/24 11:12:55;;;;;;;6.10;2.78;;;;;;;18.64;41.52;103818.31;5028429;28;20044;-71
2023/01/24 11:15:24;;;;;;;9.90;2.97;;;;;;;18.59;41.68;103814.97;5029149;28;20010;-70
2023/01/24 11:18:06;;;;;;;5.57;3.03;;;;;;;18.56;41.64;103807.16;5029351;28;20045;-73
2023/01/24 11:20:34;;;;;;;8.73;2.78;;;;;;;18.61;41.79;103812.28;5029231;28;20041;-75
2023/01/24 11:23:15;;;;;;;7.45;2.80;;;;;;;18.60;41.74;103811.41;5028542;28;20037;-74
2023/01/24 11:26:01;;;;;;;7.63;2.80;;;;;;;18.61;41.73;103810.50;5028818;28;20033;-74
2023/01/24 11:28:34;;;;;;;5.05;2.50;;;;;;;18.62;41.63;103799.00;5027892;28;20068;-73
2023/01/24 11:31:03;;;;;;;6.03;2.47;;;;;;;18.63;41.92;103797.25;5029387;28;20049;-73
2023/01/24 11:33:38;;;;;;;7.82;2.72;;;;;;;18.68;41.88;103804.06;5023793;28;20033;-72
2023/01/24 11:36:29;;;;;;;7.82;3.10;;;;;;;18.69;41.73;103802.28;5029462;28;20037;-73
2023/01/24 11:38:59;;;;;;;5.38;2.70;;;;;;;18.68;41.98;103798.78;5026207;28;20409;-72
2023/01/24 11:41:34;;;;;;;7.25;3.30;;;;;;;18.70;42.14;103796.09;5028825;28;20039;-75
2023/01/24 11:44:18;;;;;;;5.43;2.70;;;;;;;18.71;42.27;103802.22;5028881;28;20092;-71
2023/01/24 11:47:06;;;;;;;6.53;3.00;;;;;;;18.68;42.19;103788.22;5026960;28;20936;-72
2023/01/24 11:49:59;;;;;;;6.22;2.80;;;;;;;18.70;42.36;103795.22;5029528;28;20504;-73
2023/01/24 11:52:27;;;;;;;6.10;2.78;;;;;;;18.71;42.35;103791.66;5029550;28;20137;-73
2023/01/24 11:55:01;;;;;;;6.00;2.55;;;;;;;18.70;42.49;103789.94;5027929;28;20041;-72
2023/01/24 11:57:26;;;;;;;;;;;;;;;18.77;41.89;103788.78;5027985;28;20042;-71
2023/01/24 11:59:58;;;;;;;7.87;2.93;;;;;;;18.75;42.07;103788.00;5026529;28;19917;-69
2023/01/24 12:02:28;;;;;;;7.88;2.75;;;;;;;18.71;43.14;103786.38;5023194;28;20268;-72
2023/01/24 12:05:20;;;;;;;5.63;2.95;;;;;;;18.72;42.60;103783.66;5015196;28;20034;-70
2023/01/24 12:08:19;;;;;;;6.50;2.80;;;;;;;18.74;42.48;103775.69;5014030;28;20494;-71
2023/01/24 12:11:06;;;;;;;7.20;2.70;;;;;;;18.75;42.43;103773.00;5014901;28;20080;-71
2023/01/24 12:13:41;;;;;;;7.00;2.60;;;;;;;18.75;42.34;103778.28;5013978;28;20029;-70